createdAt,value
2018-06-19T00:00:58.270Z,15.70
2018-06-19T00:03:28.586Z,15.80
2018-06-19T00:05:58.868Z,15.90
2018-06-19T00:08:29.118Z,15.80
2018-06-19T00:10:59.806Z,15.70
2018-06-19T00:13:29.995Z,15.80
2018-06-19T00:16:00.401Z,15.60
2018-06-19T00:18:32.541Z,15.50
2018-06-19T00:21:14.007Z,15.50
2018-06-19T00:23:44.249Z,15.50
2018-06-19T00:26:14.524Z,15.50
2018-06-19T00:28:46.786Z,15.40
2018-06-19T00:31:17.280Z,15.30
2018-06-19T00:33:47.533Z,15.30
2018-06-19T00:36:18.034Z,15.20
2018-06-19T00:38:48.301Z,15.20
2018-06-19T00:41:18.917Z,15.20
2018-06-19T00:43:49.466Z,15.10
2018-06-19T00:46:21.189Z,15.10
2018-06-19T00:51:21.234Z,15.00
2018-06-19T00:53:51.424Z,15.00
2018-06-19T00:56:32.335Z,14.90
2018-06-19T00:59:02.529Z,15.00
2018-06-19T01:01:33.231Z,15.00
2018-06-19T01:04:03.598Z,14.90
2018-06-19T01:06:33.877Z,14.90
2018-06-19T01:09:05.489Z,14.90
2018-06-19T01:11:35.769Z,14.90
2018-06-19T01:14:06.241Z,15.00
2018-06-19T01:16:36.642Z,15.00
2018-06-19T01:19:06.909Z,15.10
2018-06-19T01:21:37.144Z,15.20
2018-06-19T01:24:07.630Z,15.20
2018-06-19T01:26:37.956Z,15.20
2018-06-19T01:29:08.348Z,15.20
2018-06-19T01:31:38.781Z,15.10
2018-06-19T01:34:08.997Z,15.20
2018-06-19T01:36:39.209Z,15.20
2018-06-19T01:39:11.134Z,15.10
2018-06-19T01:41:41.364Z,15.10
2018-06-19T01:44:11.610Z,15.20
2018-06-19T01:46:41.826Z,15.10
2018-06-19T01:49:12.029Z,15.20
2018-06-19T01:51:42.837Z,15.20
2018-06-19T01:54:13.139Z,15.10
2018-06-19T01:56:43.582Z,15.00
2018-06-19T01:59:14.104Z,15.00
2018-06-19T02:01:44.773Z,14.90
2018-06-19T02:04:15.091Z,15.00
2018-06-19T02:06:45.931Z,15.10
2018-06-19T02:09:16.211Z,15.10
2018-06-19T02:11:46.398Z,15.00
2018-06-19T02:14:16.897Z,15.10
2018-06-19T02:16:47.501Z,15.10
2018-06-19T02:19:17.978Z,15.20
2018-06-19T02:21:48.785Z,15.10
2018-06-19T02:24:19.001Z,15.20
2018-06-19T02:26:49.206Z,15.20
2018-06-19T02:29:19.872Z,15.30
2018-06-19T02:31:50.266Z,15.30
2018-06-19T02:34:20.534Z,15.50
2018-06-19T02:36:51.018Z,15.30
2018-06-19T02:39:21.230Z,15.30
2018-06-19T02:41:51.918Z,15.40
2018-06-19T02:44:22.621Z,15.50
2018-06-19T02:46:52.915Z,15.40
2018-06-19T02:49:23.130Z,15.30
2018-06-19T02:51:53.754Z,15.50
2018-06-19T02:54:24.044Z,15.60
2018-06-19T02:56:54.293Z,15.60
2018-06-19T02:59:24.819Z,15.60
2018-06-19T03:01:55.074Z,15.60
2018-06-19T03:04:25.496Z,15.60
2018-06-19T03:06:56.613Z,15.70
2018-06-19T03:09:26.938Z,15.70
2018-06-19T03:11:57.371Z,15.60
2018-06-19T03:14:28.897Z,15.60
2018-06-19T03:16:59.206Z,15.60
2018-06-19T03:19:29.442Z,15.70
2018-06-19T03:22:00.003Z,15.70
2018-06-19T03:24:30.347Z,15.80
2018-06-19T03:27:00.602Z,15.70
2018-06-19T03:29:30.786Z,15.60
2018-06-19T03:32:01.027Z,15.50
2018-06-19T03:34:31.265Z,15.60
2018-06-19T03:37:01.586Z,15.80
2018-06-19T03:39:31.947Z,15.80
2018-06-19T03:47:01.556Z,15.90
2018-06-19T03:49:31.885Z,15.90
2018-06-19T03:52:02.569Z,15.90
2018-06-19T03:54:32.749Z,16.00
2018-06-19T03:57:03.128Z,16.10
2018-06-19T03:59:33.625Z,16.10
2018-06-19T04:02:03.886Z,16.00
2018-06-19T04:04:34.145Z,16.10
2018-06-19T04:07:05.097Z,16.20
2018-06-19T04:09:35.370Z,16.20
2018-06-19T04:12:05.633Z,16.10
2018-06-19T04:14:36.145Z,16.30
2018-06-19T04:17:06.797Z,16.10
2018-06-19T04:19:37.097Z,16.20
2018-06-19T04:22:07.737Z,16.20
2018-06-19T04:24:38.162Z,16.20
2018-06-19T04:27:08.709Z,16.40
2018-06-19T04:29:38.933Z,16.40
2018-06-19T04:32:09.685Z,16.40
2018-06-19T04:34:40.768Z,16.50
2018-06-19T04:37:12.629Z,16.50
2018-06-19T04:42:13.078Z,16.40
2018-06-19T04:44:43.290Z,16.50
2018-06-19T04:47:13.961Z,16.50
2018-06-19T04:52:13.873Z,16.60
2018-06-19T04:54:44.369Z,16.70
2018-06-19T04:57:14.917Z,16.80
2018-06-19T04:59:45.169Z,16.70
2018-06-19T05:04:45.031Z,16.70
2018-06-19T05:07:15.535Z,16.70
2018-06-19T05:09:45.997Z,16.70
2018-06-19T05:12:16.216Z,16.80
2018-06-19T05:14:46.569Z,16.70
2018-06-19T05:19:48.905Z,16.90
2018-06-19T05:22:20.211Z,16.90
2018-06-19T05:24:50.488Z,17.20
2018-06-19T05:27:20.822Z,17.10
2018-06-19T05:29:51.029Z,17.20
2018-06-19T05:32:22.139Z,17.60
2018-06-19T05:34:52.609Z,17.40
2018-06-19T05:37:23.019Z,17.50
2018-06-19T05:39:54.734Z,17.60
2018-06-19T05:42:25.053Z,17.50
2018-06-19T05:44:55.379Z,17.50
2018-06-19T05:47:26.390Z,17.40
2018-06-19T05:49:57.030Z,17.40
2018-06-19T05:52:27.718Z,17.50
2018-06-19T05:54:58.523Z,17.50
2018-06-19T05:57:28.849Z,17.40
2018-06-19T05:59:59.543Z,17.50
2018-06-19T06:02:30.138Z,17.30
2018-06-19T06:05:00.503Z,17.50
2018-06-19T06:07:31.059Z,17.70
2018-06-19T06:10:01.335Z,17.70
2018-06-19T06:12:31.710Z,17.70
2018-06-19T06:15:02.601Z,17.90
2018-06-19T06:17:33.115Z,17.90
2018-06-19T06:20:04.246Z,18.10
2018-06-19T06:22:35.124Z,18.00
2018-06-19T06:25:05.510Z,17.90
2018-06-19T06:27:35.866Z,18.30
2018-06-19T06:30:06.588Z,18.60
2018-06-19T06:32:37.157Z,18.70
2018-06-19T06:35:08.301Z,18.60
2018-06-19T06:37:38.509Z,18.90
2018-06-19T06:40:08.838Z,19.10
2018-06-19T06:42:39.336Z,19.10
2018-06-19T06:45:09.541Z,19.00
2018-06-19T06:47:40.049Z,18.80
2018-06-19T06:50:10.243Z,18.80
2018-06-19T06:52:40.557Z,19.10
2018-06-19T06:55:11.080Z,19.70
2018-06-19T06:57:42.974Z,19.70
2018-06-19T07:00:13.555Z,19.30
2018-06-19T07:02:43.761Z,19.40
2018-06-19T07:05:14.593Z,19.50
2018-06-19T07:07:45.101Z,19.40
2018-06-19T07:10:15.409Z,19.00
2018-06-19T07:12:46.160Z,18.80
2018-06-19T07:15:16.401Z,18.90
2018-06-19T07:17:46.633Z,19.00
2018-06-19T07:20:17.118Z,18.80
2018-06-19T07:25:16.901Z,18.50
2018-06-19T07:27:47.285Z,18.50
2018-06-19T07:30:17.543Z,18.80
2018-06-19T07:32:49.923Z,19.10
2018-06-19T07:35:20.444Z,19.50
2018-06-19T07:37:50.674Z,19.60
2018-06-19T07:40:20.863Z,19.30
2018-06-19T07:42:51.118Z,19.40
2018-06-19T07:45:22.036Z,19.60
2018-06-19T07:47:52.614Z,19.90
2018-06-19T07:52:52.497Z,20.30
2018-06-19T07:55:22.746Z,20.30
2018-06-19T07:58:04.359Z,20.00
2018-06-19T08:00:38.701Z,20.00
2018-06-19T08:03:09.147Z,20.00
2018-06-19T08:05:39.458Z,19.80
2018-06-19T08:08:09.953Z,19.60
2018-06-19T08:10:40.167Z,19.20
2018-06-19T08:13:10.470Z,19.20
2018-06-19T08:15:40.689Z,19.60
2018-06-19T08:18:11.762Z,19.60
2018-06-19T08:20:42.519Z,19.40
2018-06-19T08:23:13.422Z,19.30
2018-06-19T08:25:45.411Z,19.40
2018-06-19T08:28:20.590Z,20.00
2018-06-19T08:30:51.218Z,20.40
2018-06-19T08:33:21.594Z,20.30
2018-06-19T08:35:51.813Z,20.20
2018-06-19T08:38:22.322Z,19.90
2018-06-19T08:40:52.616Z,19.70
2018-06-19T08:43:22.869Z,19.10
2018-06-19T08:45:53.346Z,19.00
2018-06-19T08:48:23.613Z,19.00
2018-06-19T08:50:53.937Z,18.50
2018-06-19T08:53:24.492Z,18.40
2018-06-19T08:55:54.733Z,18.40
2018-06-19T08:58:24.950Z,18.20
2018-06-19T09:00:55.197Z,18.30
2018-06-19T09:03:25.721Z,18.50
2018-06-19T09:05:56.114Z,18.30
2018-06-19T09:10:56.205Z,18.40
2018-06-19T09:13:26.593Z,18.40
2018-06-19T09:15:57.138Z,18.50
2018-06-19T09:18:27.869Z,18.80
2018-06-19T09:20:58.121Z,19.00
2018-06-19T09:23:28.485Z,19.00
2018-06-19T09:25:58.779Z,18.60
2018-06-19T09:28:29.050Z,18.60
2018-06-19T09:30:59.322Z,18.20
2018-06-19T09:33:29.917Z,18.00
2018-06-19T09:36:00.205Z,18.00
2018-06-19T09:38:30.589Z,18.10
2018-06-19T09:41:00.776Z,18.10
2018-06-19T09:43:31.022Z,18.20
2018-06-19T09:46:01.646Z,18.40
2018-06-19T09:48:31.973Z,18.60
2018-06-19T09:51:02.327Z,18.50
2018-06-19T09:53:33.186Z,18.30
2018-06-19T09:56:03.617Z,18.50
2018-06-19T09:58:34.675Z,18.70
2018-06-19T10:01:05.172Z,18.80
2018-06-19T10:03:35.626Z,18.70
2018-06-19T10:06:06.206Z,18.80
2018-06-19T10:11:06.115Z,18.80
2018-06-19T10:13:36.610Z,19.20
2018-06-19T10:16:07.167Z,19.10
2018-06-19T10:18:37.779Z,19.50
2018-06-19T10:21:08.269Z,20.00
2018-06-19T10:23:38.652Z,20.30
2018-06-19T10:26:08.909Z,20.60
2018-06-19T10:28:40.596Z,20.30
2018-06-19T10:31:10.854Z,20.10
2018-06-19T10:33:41.119Z,20.00
2018-06-19T10:36:11.710Z,20.10
2018-06-19T10:38:41.936Z,20.10
2018-06-19T10:41:12.113Z,20.50
2018-06-19T10:43:43.547Z,21.30
2018-06-19T10:46:13.817Z,22.00
2018-06-19T10:48:44.019Z,22.60
2018-06-19T10:51:14.479Z,23.10
2018-06-19T10:53:44.809Z,23.70
2018-06-19T10:56:16.037Z,23.70
2018-06-19T10:58:46.674Z,23.40
2018-06-19T11:01:16.972Z,22.60
2018-06-19T11:03:47.361Z,22.60
2018-06-19T11:06:17.665Z,22.80
2018-06-19T11:08:47.906Z,23.10
2018-06-19T11:11:18.154Z,23.20
2018-06-19T11:13:48.528Z,23.40
2018-06-19T11:16:19.069Z,23.30
2018-06-19T11:18:49.664Z,22.90
2018-06-19T11:21:19.966Z,22.60
2018-06-19T11:23:50.594Z,23.50
2018-06-19T11:26:20.898Z,23.30
2018-06-19T11:28:51.501Z,23.10
2018-06-19T11:31:21.794Z,23.30
2018-06-19T11:33:52.118Z,22.90
2018-06-19T11:36:22.297Z,22.30
2018-06-19T11:38:52.475Z,22.10
2018-06-19T11:41:22.698Z,22.40
2018-06-19T11:43:54.419Z,22.50
2018-06-19T11:46:24.866Z,22.10
2018-06-19T11:48:55.053Z,21.80
2018-06-19T11:51:26.532Z,21.50
2018-06-19T11:53:57.103Z,21.50
2018-06-19T11:56:27.261Z,21.70
2018-06-19T11:58:58.079Z,22.30
2018-06-19T12:01:28.366Z,22.00
2018-06-19T12:03:58.630Z,22.10
2018-06-19T12:06:28.811Z,22.50
2018-06-19T12:08:59.180Z,23.00
2018-06-19T12:11:29.390Z,23.00
2018-06-19T12:13:59.831Z,23.20
2018-06-19T12:16:30.357Z,23.10
2018-06-19T12:19:01.535Z,22.40
2018-06-19T12:21:35.556Z,22.10
2018-06-19T12:24:06.557Z,21.90
2018-06-19T12:26:41.081Z,21.80
2018-06-19T12:29:15.085Z,21.30
2018-06-19T12:31:51.688Z,21.10
2018-06-19T12:34:27.691Z,20.90
2018-06-19T12:37:13.371Z,20.80
2018-06-19T12:39:44.151Z,20.70
2018-06-19T12:42:14.294Z,21.00
2018-06-19T12:44:44.434Z,21.30
2018-06-19T12:47:14.617Z,21.40
2018-06-19T12:49:56.035Z,21.50
2018-06-19T12:52:37.139Z,21.60
2018-06-19T12:55:28.022Z,21.60
2018-06-19T12:57:58.310Z,21.60
2018-06-19T13:00:28.560Z,21.70
2018-06-19T13:03:10.462Z,22.30
2018-06-19T13:05:51.742Z,22.40
2018-06-19T13:08:22.294Z,22.40
2018-06-19T13:10:54.224Z,21.90
2018-06-19T13:13:35.520Z,21.40
2018-06-19T13:16:07.658Z,21.50
2018-06-19T13:18:48.713Z,21.60
2018-06-19T13:21:21.460Z,21.30
2018-06-19T13:23:54.927Z,21.20
2018-06-19T13:26:25.138Z,21.30
2018-06-19T13:30:08.886Z,21.50
2018-06-19T13:32:39.771Z,21.80
2018-06-19T13:37:40.063Z,23.20
2018-06-19T13:41:19.732Z,23.20
2018-06-19T13:44:03.230Z,23.20
2018-06-19T13:46:33.513Z,24.00
2018-06-19T13:51:33.796Z,23.50
2018-06-19T13:54:04.010Z,23.70
2018-06-19T13:57:44.373Z,23.40
2018-06-19T14:00:19.441Z,23.30
2018-06-19T14:02:50.087Z,22.70
2018-06-19T14:05:21.199Z,22.10
2018-06-19T14:08:06.618Z,22.00
2018-06-19T14:10:47.720Z,22.10
2018-06-19T14:13:17.951Z,22.10
2018-06-19T14:15:49.230Z,22.20
2018-06-19T14:18:20.806Z,22.50
2018-06-19T14:20:51.351Z,22.70
2018-06-19T14:23:21.867Z,22.50
2018-06-19T14:25:52.101Z,22.30
2018-06-19T14:28:22.249Z,21.80
2018-06-19T14:30:52.922Z,21.90
2018-06-19T14:33:23.158Z,22.00
2018-06-19T14:35:53.434Z,21.70
2018-06-19T14:38:23.946Z,21.90
2018-06-19T14:40:54.569Z,22.10
2018-06-19T14:43:24.786Z,22.20
2018-06-19T14:45:55.298Z,22.30
2018-06-19T14:48:25.524Z,22.40
2018-06-19T14:53:25.287Z,21.60
2018-06-19T14:55:55.506Z,21.60
2018-06-19T14:58:25.942Z,21.60
2018-06-19T15:00:56.081Z,21.50
2018-06-19T15:03:26.217Z,21.60
2018-06-19T15:05:56.766Z,21.70
2018-06-19T15:08:27.732Z,21.80
2018-06-19T15:10:58.255Z,22.20
2018-06-19T15:13:29.025Z,22.50
2018-06-19T15:15:59.478Z,23.70
2018-06-19T15:18:30.089Z,25.30
2018-06-19T15:21:01.760Z,24.90
2018-06-19T15:23:33.409Z,25.20
2018-06-19T15:28:34.792Z,27.10
2018-06-19T15:31:06.333Z,26.40
2018-06-19T15:33:36.839Z,25.70
2018-06-19T15:36:07.883Z,26.30
2018-06-19T15:38:38.761Z,26.10
2018-06-19T15:41:11.300Z,25.10
2018-06-19T15:43:42.025Z,25.20
2018-06-19T15:46:12.893Z,25.80
2018-06-19T15:48:43.540Z,26.30
2018-06-19T15:51:15.898Z,26.80
2018-06-19T15:53:46.858Z,26.80
2018-06-19T15:56:17.619Z,27.20
2018-06-19T15:58:48.589Z,26.70
2018-06-19T16:01:20.928Z,26.60
2018-06-19T16:03:57.449Z,26.60
2018-06-19T16:06:29.405Z,26.50
2018-06-19T16:09:01.432Z,27.20
2018-06-19T16:11:31.877Z,28.30
2018-06-19T16:14:03.135Z,27.70
2018-06-19T16:16:33.369Z,26.80
2018-06-19T16:19:04.904Z,26.70
2018-06-19T16:21:35.506Z,26.50
2018-06-19T16:24:06.004Z,26.10
2018-06-19T16:26:36.246Z,26.60
2018-06-19T16:29:06.382Z,26.50
2018-06-19T16:31:36.562Z,26.60
2018-06-19T16:34:06.753Z,26.80
2018-06-19T16:36:38.988Z,26.80
2018-06-19T16:39:10.553Z,26.90
2018-06-19T16:41:40.777Z,26.70
2018-06-19T16:45:30.814Z,26.40
2018-06-19T16:48:01.134Z,26.70
2018-06-19T16:50:31.292Z,26.70
2018-06-19T16:53:01.760Z,26.50
2018-06-19T16:55:32.033Z,27.10
2018-06-19T16:58:02.716Z,27.00
2018-06-19T17:00:33.177Z,27.00
2018-06-19T17:03:03.482Z,26.70
2018-06-19T17:05:33.830Z,26.40
2018-06-19T17:08:04.024Z,26.20
2018-06-19T17:13:04.671Z,26.30
2018-06-19T17:18:04.585Z,26.80
2018-06-19T17:20:35.301Z,25.80
2018-06-19T17:23:05.670Z,25.90
2018-06-19T17:25:35.949Z,25.70
2018-06-19T17:28:07.001Z,25.50
2018-06-19T17:30:37.225Z,25.40
2018-06-19T17:33:07.626Z,26.00
2018-06-19T17:35:38.389Z,25.30
2018-06-19T17:38:08.837Z,26.40
2018-06-19T17:40:38.997Z,26.80
2018-06-19T17:43:09.569Z,27.10
2018-06-19T17:45:39.861Z,26.00
2018-06-19T17:48:10.150Z,25.10
2018-06-19T17:50:40.641Z,24.10
2018-06-19T17:53:10.913Z,24.20
2018-06-19T17:55:41.046Z,24.10
2018-06-19T17:58:11.783Z,24.50
2018-06-19T18:00:42.051Z,24.00
2018-06-19T18:03:12.274Z,24.00
2018-06-19T18:05:42.854Z,24.10
2018-06-19T18:08:13.038Z,24.10
2018-06-19T18:10:43.310Z,23.40
2018-06-19T18:13:13.997Z,23.50
2018-06-19T18:15:44.165Z,23.70
2018-06-19T18:18:14.736Z,24.40
2018-06-19T18:20:45.188Z,24.10
2018-06-19T18:23:15.397Z,23.80
2018-06-19T18:25:45.723Z,24.30
2018-06-19T18:28:16.397Z,23.60
2018-06-19T18:30:46.534Z,23.70
2018-06-19T18:33:16.736Z,23.70
2018-06-19T18:35:47.015Z,23.60
2018-06-19T18:38:17.373Z,23.50
2018-06-19T18:40:47.830Z,23.50
2018-06-19T18:43:18.001Z,23.40
2018-06-19T18:45:52.209Z,23.30
2018-06-19T18:48:23.082Z,23.80
2018-06-19T18:50:53.250Z,24.00
2018-06-19T18:53:23.584Z,24.30
2018-06-19T18:55:54.666Z,24.30
2018-06-19T18:58:24.969Z,24.40
2018-06-19T19:00:55.141Z,23.70
2018-06-19T19:03:25.934Z,23.30
2018-06-19T19:05:56.170Z,22.50
2018-06-19T19:08:26.833Z,22.80
2018-06-19T19:10:57.718Z,23.00
2018-06-19T19:13:28.864Z,22.00
2018-06-19T19:16:04.486Z,21.90
2018-06-19T19:18:40.059Z,21.80
2018-06-19T19:21:10.361Z,22.20
2018-06-19T19:23:40.876Z,21.70
2018-06-19T19:26:11.057Z,21.40
2018-06-19T19:28:46.566Z,20.70
2018-06-19T19:31:16.774Z,20.20
2018-06-19T19:33:47.319Z,20.00
2018-06-19T19:36:22.438Z,19.90
2018-06-19T19:38:58.018Z,19.60
2018-06-19T19:41:28.154Z,19.20
2018-06-19T19:43:58.322Z,18.90
2018-06-19T19:49:03.967Z,18.20
2018-06-19T19:51:34.136Z,17.90
2018-06-19T19:54:04.465Z,17.70
2018-06-19T19:56:39.571Z,17.60
2018-06-19T19:59:09.793Z,17.70
2018-06-19T20:01:39.998Z,17.60
2018-06-19T20:04:10.250Z,17.60
2018-06-19T20:06:40.742Z,17.60
2018-06-19T20:11:40.577Z,17.30
2018-06-19T20:14:11.069Z,17.20
2018-06-19T20:16:41.282Z,17.00
2018-06-19T20:19:12.952Z,16.90
2018-06-19T20:21:43.581Z,16.90
2018-06-19T20:24:13.946Z,16.80
2018-06-19T20:26:44.368Z,16.70
2018-06-19T20:29:15.044Z,16.60
2018-06-19T20:31:45.642Z,16.50
2018-06-19T20:34:16.172Z,16.50
2018-06-19T20:36:47.298Z,16.40
2018-06-19T20:39:17.654Z,16.40
2018-06-19T20:41:48.090Z,16.30
2018-06-19T20:44:18.613Z,16.20
2018-06-19T20:46:49.185Z,16.10
2018-06-19T20:49:19.777Z,16.00
2018-06-19T20:51:50.096Z,16.00
2018-06-19T20:54:20.781Z,16.00
2018-06-19T20:56:50.985Z,15.90
2018-06-19T20:59:21.281Z,15.90
2018-06-19T21:01:51.735Z,15.80
2018-06-19T21:04:22.446Z,15.70
2018-06-19T21:06:52.587Z,15.70
2018-06-19T21:09:22.785Z,15.60
2018-06-19T21:11:53.774Z,15.60
2018-06-19T21:14:24.202Z,15.50
2018-06-19T21:16:54.345Z,15.40
2018-06-19T21:19:25.106Z,15.40
2018-06-19T21:21:55.444Z,15.30
2018-06-19T21:24:25.786Z,15.30
2018-06-19T21:31:57.201Z,15.20
2018-06-19T21:34:27.851Z,15.20
2018-06-19T21:36:58.450Z,15.10
2018-06-19T21:39:28.702Z,15.10
2018-06-19T21:41:58.839Z,15.10
2018-06-19T21:44:29.450Z,15.10
2018-06-19T21:46:59.641Z,15.00
2018-06-19T21:49:29.806Z,15.00
2018-06-19T21:52:00.230Z,14.90
2018-06-19T21:54:30.526Z,14.90
2018-06-19T21:57:00.689Z,15.00
2018-06-19T21:59:31.541Z,14.90
2018-06-19T22:02:01.689Z,14.90
2018-06-19T22:04:31.870Z,14.90
2018-06-19T22:07:02.494Z,14.90
2018-06-19T22:09:32.750Z,14.90
2018-06-19T22:12:03.001Z,14.90
2018-06-19T22:14:33.130Z,15.00
2018-06-19T22:17:03.288Z,15.10
2018-06-19T22:19:34.082Z,15.10
2018-06-19T22:22:04.270Z,15.20
2018-06-19T22:24:34.435Z,15.20
2018-06-19T22:27:04.626Z,15.20
2018-06-19T22:29:34.809Z,15.10
2018-06-19T22:32:04.961Z,15.10
2018-06-19T22:34:35.117Z,15.00
2018-06-19T22:37:05.238Z,15.00
2018-06-19T22:39:35.501Z,14.90
2018-06-19T22:42:05.710Z,14.70
2018-06-19T22:44:35.846Z,14.60
2018-06-19T22:47:06.313Z,14.50
2018-06-19T22:49:36.912Z,14.40
2018-06-19T22:52:07.116Z,14.30
2018-06-19T22:54:37.357Z,14.20
2018-06-19T22:57:07.665Z,14.20
2018-06-19T22:59:37.825Z,14.10
2018-06-19T23:02:08.253Z,14.20
2018-06-19T23:04:38.591Z,13.80
2018-06-19T23:07:08.870Z,13.90
2018-06-19T23:09:39.530Z,13.80
2018-06-19T23:12:09.813Z,13.80
2018-06-19T23:14:40.090Z,13.70
2018-06-19T23:17:10.335Z,13.70
2018-06-19T23:19:41.134Z,13.70
2018-06-19T23:22:11.417Z,13.60
2018-06-19T23:24:41.668Z,13.60
2018-06-19T23:27:11.898Z,13.50
2018-06-19T23:29:42.507Z,13.50
2018-06-19T23:32:12.758Z,13.50
2018-06-19T23:37:12.909Z,13.40
2018-06-19T23:39:43.126Z,13.40
2018-06-19T23:42:13.322Z,13.40
2018-06-19T23:44:43.539Z,13.40
2018-06-19T23:47:14.058Z,13.30
2018-06-19T23:49:44.614Z,13.30
2018-06-19T23:52:15.266Z,13.30
2018-06-19T23:54:45.781Z,13.30
2018-06-19T23:57:16.064Z,13.30
2018-06-19T23:59:46.314Z,13.30
